createdAt,value
2023-04-15T00:01:19.477Z,5.38
2023-04-15T00:03:47.933Z,4.95
2023-04-15T00:06:15.753Z,5.32
2023-04-15T00:08:43.619Z,5.05
2023-04-15T00:11:11.645Z,5.90
2023-04-15T00:13:39.597Z,5.43
2023-04-15T00:16:08.621Z,5.70
2023-04-15T00:18:38.206Z,5.78
2023-04-15T00:21:05.939Z,5.45
2023-04-15T00:23:33.466Z,5.70
2023-04-15T00:26:01.017Z,6.32
2023-04-15T00:28:28.649Z,5.65
2023-04-15T00:30:56.480Z,6.45
2023-04-15T00:33:24.214Z,6.28
2023-04-15T00:35:51.845Z,6.53
2023-04-15T00:38:19.561Z,6.45
2023-04-15T00:40:47.445Z,6.60
2023-04-15T00:43:15.002Z,7.63
2023-04-15T00:45:43.461Z,6.97
2023-04-15T00:48:12.333Z,7.18
2023-04-15T00:50:39.889Z,7.28
2023-04-15T00:53:07.411Z,7.50
2023-04-15T00:55:36.256Z,6.90
2023-04-15T00:58:03.921Z,7.72
2023-04-15T01:00:31.638Z,7.38
2023-04-15T01:02:59.675Z,7.07
2023-04-15T01:05:28.687Z,7.38
2023-04-15T01:07:58.143Z,7.28
2023-04-15T01:10:25.749Z,7.00
2023-04-15T01:12:53.415Z,7.00
2023-04-15T01:15:21.309Z,7.78
2023-04-15T01:17:49.340Z,6.88
2023-04-15T01:20:17.255Z,7.28
2023-04-15T01:22:45.358Z,6.93
2023-04-15T01:25:19.538Z,7.50
2023-04-15T01:27:47.630Z,7.38
2023-04-15T01:30:15.705Z,7.80
2023-04-15T01:32:43.292Z,7.68
2023-04-15T01:35:10.867Z,7.65
2023-04-15T01:37:38.455Z,8.00
2023-04-15T01:40:07.974Z,7.50
2023-04-15T01:42:37.714Z,7.90
2023-04-15T01:45:07.177Z,6.97
2023-04-15T01:47:34.785Z,6.85
2023-04-15T01:50:02.938Z,6.80
2023-04-15T01:52:30.592Z,7.85
2023-04-15T01:54:58.344Z,7.05
2023-04-15T01:57:28.396Z,7.30
2023-04-15T01:59:56.088Z,7.80
2023-04-15T02:02:23.763Z,7.03
2023-04-15T02:04:51.410Z,7.55
2023-04-15T02:07:19.641Z,8.85
2023-04-15T02:09:47.693Z,7.63
2023-04-15T02:12:15.277Z,7.88
2023-04-15T02:14:42.869Z,8.27
2023-04-15T02:17:10.643Z,7.85
2023-04-15T02:19:39.314Z,8.93
2023-04-15T02:22:09.277Z,8.25
2023-04-15T02:24:36.869Z,8.60
2023-04-15T02:27:04.484Z,8.80
2023-04-15T02:29:32.894Z,8.50
2023-04-15T02:32:01.813Z,9.13
2023-04-15T02:34:29.525Z,8.82
2023-04-15T02:36:58.960Z,8.90
2023-04-15T02:39:27.345Z,9.68
2023-04-15T02:41:55.321Z,8.13
2023-04-15T02:44:24.930Z,7.63
2023-04-15T02:46:56.851Z,7.68
2023-04-15T02:49:25.558Z,8.05
2023-04-15T02:51:53.200Z,8.80
2023-04-15T02:54:26.085Z,8.65
2023-04-15T02:56:55.343Z,9.07
2023-04-15T02:59:23.396Z,9.43
2023-04-15T03:01:52.193Z,9.50
2023-04-15T03:04:20.002Z,9.52
2023-04-15T03:06:47.599Z,8.30
2023-04-15T03:09:15.338Z,9.32
2023-04-15T03:11:43.981Z,9.68
2023-04-15T03:14:12.128Z,9.38
2023-04-15T03:16:43.344Z,9.13
2023-04-15T03:19:10.865Z,9.18
2023-04-15T03:21:41.404Z,9.25
2023-04-15T03:24:09.967Z,9.20
2023-04-15T03:26:37.512Z,9.55
2023-04-15T03:29:11.678Z,9.63
2023-04-15T03:31:40.714Z,9.75
2023-04-15T03:34:08.409Z,9.15
2023-04-15T03:36:36.962Z,9.80
2023-04-15T03:39:04.527Z,9.60
2023-04-15T03:41:32.966Z,9.07
2023-04-15T03:44:00.610Z,10.30
2023-04-15T03:46:28.238Z,9.52
2023-04-15T03:48:55.831Z,9.60
2023-04-15T03:51:23.333Z,9.63
2023-04-15T03:53:51.193Z,9.75
2023-04-15T03:56:18.693Z,10.35
2023-04-15T03:58:46.717Z,10.63
2023-04-15T04:01:14.393Z,10.60
2023-04-15T04:03:42.515Z,10.20
2023-04-15T04:06:12.454Z,10.30
2023-04-15T04:08:40.024Z,11.45
2023-04-15T04:11:07.973Z,10.13
2023-04-15T04:13:35.523Z,10.45
2023-04-15T04:16:04.753Z,9.95
2023-04-15T04:18:33.362Z,11.02
2023-04-15T04:21:01.570Z,10.95
2023-04-15T04:23:29.228Z,9.80
2023-04-15T04:25:56.954Z,10.38
2023-04-15T04:28:24.474Z,11.63
2023-04-15T04:30:52.081Z,11.10
2023-04-15T04:33:22.431Z,11.70
2023-04-15T04:35:49.972Z,11.10
2023-04-15T04:38:17.519Z,10.77
2023-04-15T04:40:45.347Z,10.18
2023-04-15T04:43:13.257Z,11.15
2023-04-15T04:45:41.244Z,11.18
2023-04-15T04:48:10.509Z,10.82
2023-04-15T04:50:38.290Z,10.52
2023-04-15T04:53:06.051Z,10.98
2023-04-15T04:55:34.454Z,10.93
2023-04-15T04:58:01.977Z,11.25
2023-04-15T05:00:29.784Z,10.95
2023-04-15T05:02:57.659Z,10.98
2023-04-15T05:05:25.492Z,10.30
2023-04-15T05:07:53.409Z,11.27
2023-04-15T05:10:21.119Z,11.13
2023-04-15T05:12:48.707Z,10.88
2023-04-15T05:15:16.387Z,11.10
2023-04-15T05:17:44.741Z,10.35
2023-04-15T05:20:13.043Z,10.85
2023-04-15T05:22:40.910Z,11.20
2023-04-15T05:25:09.389Z,10.82
2023-04-15T05:27:37.017Z,11.02
2023-04-15T05:30:05.484Z,11.55
2023-04-15T05:32:33.065Z,10.82
2023-04-15T05:35:00.705Z,10.85
2023-04-15T05:37:28.262Z,11.23
2023-04-15T05:39:56.791Z,11.55
2023-04-15T05:42:25.227Z,11.45
2023-04-15T05:44:55.238Z,11.47
2023-04-15T05:47:22.978Z,11.18
2023-04-15T05:49:50.962Z,11.38
2023-04-15T05:52:18.835Z,11.57
2023-04-15T05:54:46.614Z,11.02
2023-04-15T05:57:14.235Z,11.10
2023-04-15T05:59:42.697Z,12.02
2023-04-15T06:02:10.606Z,12.23
2023-04-15T06:04:38.330Z,11.77
2023-04-15T06:07:06.239Z,12.10
2023-04-15T06:09:33.853Z,10.85
2023-04-15T06:12:02.178Z,11.63
2023-04-15T06:14:29.717Z,12.02
2023-04-15T06:16:58.191Z,11.82
2023-04-15T06:19:26.142Z,12.05
2023-04-15T06:21:53.689Z,11.32
2023-04-15T06:24:21.551Z,12.23
2023-04-15T06:26:49.102Z,12.70
2023-04-15T06:29:16.644Z,11.60
2023-04-15T06:31:44.228Z,13.35
2023-04-15T06:34:11.816Z,12.73
2023-04-15T06:36:39.351Z,12.15
2023-04-15T06:39:07.127Z,12.68
2023-04-15T06:41:35.535Z,11.90
2023-04-15T06:44:03.322Z,12.90
2023-04-15T06:46:30.959Z,12.80
2023-04-15T06:48:58.522Z,12.65
2023-04-15T06:51:26.790Z,13.35
2023-04-15T06:53:54.562Z,12.80
2023-04-15T06:56:22.038Z,12.65
2023-04-15T06:58:49.570Z,11.95
2023-04-15T07:01:19.977Z,12.13
2023-04-15T07:03:47.799Z,12.65
2023-04-15T07:06:15.374Z,12.23
2023-04-15T07:08:42.934Z,12.35
2023-04-15T07:11:11.515Z,12.48
2023-04-15T07:13:39.165Z,11.38
2023-04-15T07:16:06.834Z,11.63
2023-04-15T07:18:34.534Z,10.82
2023-04-15T07:21:04.698Z,12.43
2023-04-15T07:23:32.560Z,13.07
2023-04-15T07:26:00.997Z,12.02
2023-04-15T07:28:28.588Z,12.13
2023-04-15T07:30:57.360Z,12.70
2023-04-15T07:33:24.990Z,12.60
2023-04-15T07:35:52.540Z,12.80
2023-04-15T07:38:20.095Z,11.77
2023-04-15T07:40:48.429Z,10.85
2023-04-15T07:43:16.173Z,12.38
2023-04-15T07:45:43.855Z,10.95
2023-04-15T07:48:11.518Z,11.30
2023-04-15T07:50:39.541Z,11.30
2023-04-15T07:53:07.554Z,11.77
2023-04-15T07:55:35.112Z,12.48
2023-04-15T07:58:02.700Z,11.10
2023-04-15T08:00:30.571Z,11.10
2023-04-15T08:02:59.571Z,12.07
2023-04-15T08:05:27.315Z,12.00
2023-04-15T08:07:54.899Z,11.32
2023-04-15T08:10:22.834Z,12.15
2023-04-15T08:13:01.052Z,11.07
2023-04-15T08:15:28.700Z,10.68
2023-04-15T08:17:56.272Z,9.43
2023-04-15T08:20:24.093Z,9.73
2023-04-15T08:22:52.579Z,9.05
2023-04-15T08:25:20.623Z,9.60
2023-04-15T08:27:48.516Z,9.40
2023-04-15T08:30:16.220Z,8.02
2023-04-15T08:32:47.145Z,9.02
2023-04-15T08:35:15.467Z,9.50
2023-04-15T08:37:43.022Z,8.00
2023-04-15T08:40:11.573Z,7.88
2023-04-15T08:42:51.664Z,8.95
2023-04-15T08:45:20.646Z,8.95
2023-04-15T08:47:54.557Z,7.15
2023-04-15T08:50:25.309Z,7.40
2023-04-15T08:53:00.288Z,6.20
2023-04-15T08:55:36.169Z,6.22
2023-04-15T08:58:05.626Z,6.13
2023-04-15T09:00:34.043Z,5.22
2023-04-15T09:03:02.455Z,6.28
2023-04-15T09:05:33.772Z,6.22
2023-04-15T09:08:05.848Z,5.40
2023-04-15T09:10:33.927Z,5.18
2023-04-15T09:13:02.858Z,5.32
2023-04-15T09:15:33.007Z,5.63
2023-04-15T09:18:00.737Z,5.40
2023-04-15T09:20:32.303Z,5.50
2023-04-15T09:23:14.122Z,5.63
2023-04-15T09:25:42.589Z,4.70
2023-04-15T09:28:11.231Z,5.45
2023-04-15T09:30:38.991Z,5.43
2023-04-15T09:33:10.852Z,5.13
2023-04-15T09:35:38.669Z,5.55
2023-04-15T09:38:09.794Z,4.70
2023-04-15T09:40:41.354Z,4.50
2023-04-15T09:43:13.054Z,4.22
2023-04-15T09:45:51.662Z,3.97
2023-04-15T09:48:31.108Z,3.05
2023-04-15T09:51:01.387Z,3.95
2023-04-15T09:53:31.244Z,3.92
2023-04-15T09:56:02.358Z,3.95
2023-04-15T09:58:35.650Z,3.20
2023-04-15T10:01:06.559Z,3.28
2023-04-15T10:03:38.627Z,3.40
2023-04-15T10:06:06.893Z,3.80
2023-04-15T10:08:35.163Z,3.33
2023-04-15T10:11:04.602Z,2.90
2023-04-15T10:13:37.298Z,3.10
2023-04-15T10:16:13.828Z,3.40
2023-04-15T10:18:46.739Z,3.08
2023-04-15T10:21:18.458Z,2.65
2023-04-15T10:23:47.059Z,3.10
2023-04-15T10:26:17.380Z,3.40
2023-04-15T10:28:49.590Z,3.08
2023-04-15T10:31:18.555Z,3.40
2023-04-15T10:33:47.463Z,3.50
2023-04-15T10:36:18.960Z,3.85
2023-04-15T10:41:20.998Z,3.83
2023-04-15T10:43:54.688Z,4.05
2023-04-15T10:46:35.282Z,3.38
2023-04-15T10:49:16.333Z,3.25
2023-04-15T10:51:53.589Z,3.00
2023-04-15T10:54:27.473Z,3.08
2023-04-15T10:57:01.699Z,3.65
2023-04-15T10:59:36.091Z,3.60
2023-04-15T11:02:08.195Z,3.40
2023-04-15T11:04:56.050Z,3.25
2023-04-15T11:07:56.496Z,2.95
2023-04-15T11:10:30.985Z,3.00
2023-04-15T11:13:05.576Z,3.42
2023-04-15T11:15:41.680Z,3.40
2023-04-15T11:18:10.435Z,3.72
2023-04-15T11:21:01.152Z,4.35
2023-04-15T11:23:39.142Z,3.10
2023-04-15T11:26:11.861Z,2.35
2023-04-15T11:28:42.800Z,3.10
2023-04-15T11:31:20.152Z,2.93
2023-04-15T11:34:01.625Z,3.20
2023-04-15T11:36:34.637Z,2.67
2023-04-15T11:39:02.373Z,3.65
2023-04-15T11:41:30.436Z,2.72
2023-04-15T11:43:57.978Z,3.08
2023-04-15T11:46:32.196Z,3.05
2023-04-15T11:49:00.398Z,3.03
2023-04-15T11:51:34.347Z,3.67
2023-04-15T11:54:02.544Z,3.42
2023-04-15T11:56:30.339Z,3.30
2023-04-15T11:58:59.888Z,3.10
2023-04-15T12:01:36.777Z,3.25
2023-04-15T12:04:17.619Z,2.80
2023-04-15T12:06:46.085Z,2.67
2023-04-15T12:09:15.691Z,2.22
2023-04-15T12:11:58.283Z,2.58
2023-04-15T12:14:29.674Z,2.50
2023-04-15T12:17:00.406Z,2.55
2023-04-15T12:19:48.369Z,2.40
2023-04-15T12:22:17.647Z,2.30
2023-04-15T12:24:47.953Z,2.15
2023-04-15T12:27:17.634Z,1.88
2023-04-15T12:29:45.399Z,2.10
2023-04-15T12:32:16.284Z,2.17
2023-04-15T12:34:51.038Z,2.05
2023-04-15T12:37:19.469Z,1.98
2023-04-15T12:39:50.106Z,1.70
2023-04-15T12:42:18.766Z,2.60
2023-04-15T12:44:47.074Z,2.58
2023-04-15T12:47:15.365Z,2.00
2023-04-15T12:49:42.996Z,2.05
2023-04-15T12:52:10.841Z,1.88
2023-04-15T12:54:39.873Z,1.80
2023-04-15T12:57:07.882Z,1.33
2023-04-15T12:59:36.481Z,1.30
2023-04-15T13:02:04.372Z,1.52
2023-04-15T13:04:32.214Z,1.13
2023-04-15T13:06:59.936Z,1.40
2023-04-15T13:09:27.442Z,1.23
2023-04-15T13:11:56.169Z,1.50
2023-04-15T13:14:23.781Z,1.38
2023-04-15T13:16:51.354Z,1.40
2023-04-15T13:19:18.904Z,1.35
2023-04-15T13:21:46.492Z,1.45
2023-04-15T13:24:14.063Z,1.75
2023-04-15T13:26:41.928Z,1.90
2023-04-15T13:29:09.867Z,1.52
2023-04-15T13:31:37.507Z,2.20
2023-04-15T13:34:05.660Z,1.27
2023-04-15T13:36:33.423Z,1.83
2023-04-15T13:39:01.103Z,2.08
2023-04-15T13:41:28.714Z,2.30
2023-04-15T13:43:56.637Z,2.22
2023-04-15T13:46:25.733Z,2.20
2023-04-15T13:48:53.606Z,1.90
2023-04-15T13:51:21.246Z,1.95
2023-04-15T13:53:48.839Z,1.55
2023-04-15T13:56:16.365Z,1.58
2023-04-15T13:58:43.913Z,1.63
2023-04-15T14:01:11.516Z,1.20
2023-04-15T14:03:39.509Z,1.10
2023-04-15T14:06:07.496Z,1.20
2023-04-15T14:08:35.218Z,1.30
2023-04-15T14:11:03.177Z,1.20
2023-04-15T14:13:31.349Z,1.30
2023-04-15T14:15:59.154Z,1.20
2023-04-15T14:18:27.202Z,0.98
2023-04-15T14:20:54.788Z,0.90
2023-04-15T14:23:23.858Z,0.98
2023-04-15T14:25:52.099Z,1.33
2023-04-15T14:28:19.800Z,1.20
2023-04-15T14:30:47.378Z,0.90
2023-04-15T14:33:14.952Z,0.98
2023-04-15T14:35:42.482Z,0.98
2023-04-15T14:38:11.532Z,1.15
2023-04-15T14:40:41.797Z,0.90
2023-04-15T14:43:11.863Z,0.75
2023-04-15T14:45:42.116Z,1.00
2023-04-15T14:48:12.705Z,0.90
2023-04-15T14:50:41.949Z,0.85
2023-04-15T14:53:09.775Z,0.80
2023-04-15T14:55:37.345Z,0.90
2023-04-15T14:58:06.085Z,0.70
2023-04-15T15:00:34.076Z,0.80
2023-04-15T15:03:02.126Z,0.80
2023-04-15T15:05:30.007Z,0.90
2023-04-15T15:07:57.705Z,0.73
2023-04-15T15:10:34.621Z,0.98
2023-04-15T15:13:13.111Z,1.00
2023-04-15T15:15:41.044Z,1.00
2023-04-15T15:18:08.741Z,0.88
2023-04-15T15:20:36.419Z,1.00
2023-04-15T15:23:03.918Z,1.50
2023-04-15T15:25:31.542Z,1.00
2023-04-15T15:27:59.213Z,0.93
2023-04-15T15:30:29.128Z,1.30
2023-04-15T15:32:56.654Z,1.38
2023-04-15T15:35:25.972Z,1.30
2023-04-15T15:37:55.944Z,1.50
2023-04-15T15:40:27.070Z,1.20
2023-04-15T15:42:54.621Z,1.48
2023-04-15T15:45:22.434Z,1.60
2023-04-15T15:47:52.704Z,1.40
2023-04-15T15:50:25.440Z,1.63
2023-04-15T15:52:53.360Z,1.73
2023-04-15T15:55:21.185Z,1.88
2023-04-15T15:57:49.870Z,1.30
2023-04-15T16:00:17.758Z,1.80
2023-04-15T16:05:16.212Z,1.45
2023-04-15T16:07:43.835Z,1.70
2023-04-15T16:10:12.483Z,2.10
2023-04-15T16:12:41.405Z,2.30
2023-04-15T16:15:10.821Z,2.50
2023-04-15T16:17:39.712Z,2.75
2023-04-15T16:20:08.270Z,2.60
2023-04-15T16:22:36.356Z,2.58
2023-04-15T16:25:04.272Z,2.42
2023-04-15T16:27:32.219Z,2.67
2023-04-15T16:30:00.515Z,2.60
2023-04-15T16:32:28.245Z,2.70
2023-04-15T16:35:03.688Z,2.17
2023-04-15T16:37:33.111Z,2.00
2023-04-15T16:40:05.506Z,2.30
2023-04-15T16:42:33.077Z,2.17
2023-04-15T16:45:00.719Z,2.33
2023-04-15T16:47:31.400Z,1.95
2023-04-15T16:50:01.376Z,2.00
2023-04-15T16:52:31.201Z,2.00
2023-04-15T16:54:58.806Z,1.85
2023-04-15T16:57:50.814Z,2.25
2023-04-15T17:00:14.747Z,2.20
2023-04-15T17:02:42.532Z,2.42
2023-04-15T17:05:10.213Z,1.80
2023-04-15T17:07:37.738Z,1.77
2023-04-15T17:10:06.023Z,1.42
2023-04-15T17:12:33.656Z,1.85
2023-04-15T17:15:01.314Z,1.75
2023-04-15T17:17:29.279Z,1.85
2023-04-15T17:19:56.852Z,1.73
2023-04-15T17:22:24.614Z,1.90
2023-04-15T17:24:52.257Z,1.98
2023-04-15T17:27:22.867Z,1.80
2023-04-15T17:29:50.635Z,1.88
2023-04-15T17:32:18.398Z,1.73
2023-04-15T17:34:49.883Z,1.70
2023-04-15T17:37:18.680Z,1.70
2023-04-15T17:39:46.435Z,1.77
2023-04-15T17:42:14.110Z,1.38
2023-04-15T17:44:41.696Z,1.83
2023-04-15T17:47:09.278Z,2.10
2023-04-15T17:49:37.819Z,1.70
2023-04-15T17:52:05.833Z,1.80
2023-04-15T17:54:33.479Z,1.77
2023-04-15T17:57:03.128Z,1.92
2023-04-15T17:59:30.846Z,2.00
2023-04-15T18:01:58.873Z,1.70
2023-04-15T18:04:26.848Z,1.90
2023-04-15T18:06:54.772Z,2.03
2023-04-15T18:09:22.457Z,1.88
2023-04-15T18:11:50.020Z,1.92
2023-04-15T18:14:30.746Z,1.98
2023-04-15T18:17:02.978Z,2.42
2023-04-15T18:19:30.959Z,1.98
2023-04-15T18:22:00.258Z,1.70
2023-04-15T18:24:28.520Z,2.22
2023-04-15T18:26:56.611Z,1.92
2023-04-15T18:29:25.232Z,2.53
2023-04-15T18:31:53.137Z,2.28
2023-04-15T18:34:20.716Z,2.63
2023-04-15T18:36:48.296Z,2.35
2023-04-15T18:39:16.748Z,2.38
2023-04-15T18:41:44.425Z,2.63
2023-04-15T18:44:11.931Z,2.85
2023-04-15T18:46:39.551Z,2.75
2023-04-15T18:49:07.352Z,2.42
2023-04-15T18:51:35.266Z,2.47
2023-04-15T18:54:02.777Z,2.53
2023-04-15T18:56:31.141Z,2.10
2023-04-15T18:59:08.903Z,2.40
2023-04-15T19:01:46.318Z,2.30
2023-04-15T19:04:14.285Z,2.47
2023-04-15T19:06:42.067Z,2.10
2023-04-15T19:09:09.677Z,2.38
2023-04-15T19:11:37.369Z,3.08
2023-04-15T19:14:05.081Z,2.92
2023-04-15T19:16:32.715Z,2.78
2023-04-15T19:19:00.810Z,2.33
2023-04-15T19:21:30.500Z,2.33
2023-04-15T19:23:58.310Z,2.15
2023-04-15T19:26:25.879Z,1.65
2023-04-15T19:28:53.928Z,2.00
2023-04-15T19:31:21.556Z,2.03
2023-04-15T19:33:49.085Z,2.13
2023-04-15T19:36:18.149Z,2.13
2023-04-15T19:38:45.967Z,2.22
2023-04-15T19:41:13.608Z,2.35
2023-04-15T19:43:41.223Z,2.17
2023-04-15T19:46:08.940Z,2.40
2023-04-15T19:48:36.840Z,2.83
2023-04-15T19:51:04.397Z,2.25
2023-04-15T19:53:32.005Z,2.10
2023-04-15T19:55:59.664Z,2.22
2023-04-15T19:58:27.218Z,2.35
2023-04-15T20:00:54.887Z,2.13
2023-04-15T20:03:23.664Z,1.88
2023-04-15T20:05:52.773Z,1.95
2023-04-15T20:08:20.743Z,2.33
2023-04-15T20:10:48.274Z,2.85
2023-04-15T20:13:18.218Z,2.20
2023-04-15T20:15:46.018Z,1.88
2023-04-15T20:18:13.626Z,1.80
2023-04-15T20:20:41.291Z,2.15
2023-04-15T20:23:08.919Z,2.25
2023-04-15T20:25:36.503Z,2.60
2023-04-15T20:28:04.116Z,2.67
2023-04-15T20:30:31.763Z,2.13
2023-04-15T20:33:00.425Z,2.13
2023-04-15T20:35:30.833Z,2.25
2023-04-15T20:37:58.602Z,2.50
2023-04-15T20:40:26.694Z,2.47
2023-04-15T20:42:54.291Z,2.10
2023-04-15T20:45:22.017Z,2.53
2023-04-15T20:47:49.562Z,2.33
2023-04-15T20:50:17.303Z,2.33
2023-04-15T20:52:47.119Z,2.15
2023-04-15T20:55:14.660Z,2.20
2023-04-15T20:57:42.279Z,2.45
2023-04-15T21:00:11.055Z,2.08
2023-04-15T21:02:38.906Z,2.42
2023-04-15T21:05:07.150Z,2.42
2023-04-15T21:07:34.691Z,3.15
2023-04-15T21:10:02.311Z,2.90
2023-04-15T21:12:29.865Z,2.83
2023-04-15T21:15:00.522Z,2.55
2023-04-15T21:17:31.395Z,2.78
2023-04-15T21:19:59.096Z,2.05
2023-04-15T21:22:26.916Z,2.92
2023-04-15T21:24:54.450Z,2.85
2023-04-15T21:27:25.687Z,2.88
2023-04-15T21:29:53.591Z,2.63
2023-04-15T21:32:24.289Z,2.50
2023-04-15T21:34:56.590Z,2.60
2023-04-15T21:37:29.453Z,2.55
2023-04-15T21:39:57.131Z,2.95
2023-04-15T21:42:24.803Z,2.88
2023-04-15T21:44:52.446Z,2.42
2023-04-15T21:47:20.406Z,2.20
2023-04-15T21:49:48.201Z,2.75
2023-04-15T21:52:15.845Z,2.70
2023-04-15T21:54:43.379Z,2.72
2023-04-15T21:57:11.162Z,2.78
2023-04-15T21:59:38.655Z,2.80
2023-04-15T22:02:06.280Z,2.60
2023-04-15T22:04:33.885Z,2.83
2023-04-15T22:07:02.394Z,2.90
2023-04-15T22:09:30.814Z,2.67
2023-04-15T22:12:08.266Z,2.28
2023-04-15T22:14:46.179Z,2.13
2023-04-15T22:17:23.765Z,2.40
2023-04-15T22:20:01.206Z,3.00
2023-04-15T22:22:44.075Z,2.80
2023-04-15T22:25:21.967Z,2.72
2023-04-15T22:27:59.855Z,2.92
2023-04-15T22:30:42.199Z,2.58
2023-04-15T22:33:19.920Z,2.70
2023-04-15T22:35:57.382Z,2.38
2023-04-15T22:38:34.844Z,2.58
2023-04-15T22:41:12.315Z,2.58
2023-04-15T22:43:49.774Z,2.63
2023-04-15T22:46:27.187Z,2.75
2023-04-15T22:49:09.219Z,2.80
2023-04-15T22:51:46.637Z,2.88
2023-04-15T22:54:24.614Z,3.20
2023-04-15T22:57:02.183Z,2.92
2023-04-15T22:59:39.692Z,3.67
2023-04-15T23:02:17.412Z,3.30
2023-04-15T23:04:55.261Z,3.15
2023-04-15T23:07:32.832Z,3.22
2023-04-15T23:10:10.539Z,4.18
2023-04-15T23:12:48.064Z,3.35
2023-04-15T23:15:25.757Z,3.92
2023-04-15T23:18:03.487Z,3.58
2023-04-15T23:20:41.110Z,3.60
2023-04-15T23:23:18.532Z,3.42
2023-04-15T23:25:56.261Z,3.50
2023-04-15T23:28:33.662Z,3.75
2023-04-15T23:31:11.155Z,4.05
2023-04-15T23:33:48.637Z,4.32
2023-04-15T23:36:27.268Z,4.00
2023-04-15T23:39:04.740Z,3.85
2023-04-15T23:41:42.114Z,3.97
2023-04-15T23:44:20.352Z,4.07
2023-04-15T23:46:57.790Z,4.25
2023-04-15T23:49:36.665Z,4.55
2023-04-15T23:52:14.579Z,4.57
2023-04-15T23:54:52.030Z,4.15
2023-04-15T23:57:29.470Z,4.47
